createdAt,value
2019-03-10T00:00:10.499Z,79.64
2019-03-10T00:02:39.690Z,79.66
2019-03-10T00:05:09.081Z,79.93
2019-03-10T00:07:38.252Z,80.09
2019-03-10T00:10:08.802Z,80.22
2019-03-10T00:12:38.018Z,80.71
2019-03-10T00:15:07.717Z,80.95
2019-03-10T00:17:36.902Z,81.88
2019-03-10T00:20:06.639Z,81.73
2019-03-10T00:22:36.071Z,82.07
2019-03-10T00:25:05.392Z,82.53
2019-03-10T00:27:34.568Z,82.34
2019-03-10T00:30:03.937Z,82.23
2019-03-10T00:32:33.161Z,82.10
2019-03-10T00:35:02.366Z,82.18
2019-03-10T00:37:31.571Z,82.47
2019-03-10T00:40:51.953Z,82.97
2019-03-10T00:44:08.616Z,82.67
2019-03-10T00:47:06.089Z,82.57
2019-03-10T00:50:18.024Z,82.74
2019-03-10T00:53:00.193Z,83.09
2019-03-10T00:55:29.917Z,82.98
2019-03-10T00:57:59.209Z,83.25
2019-03-10T01:00:28.438Z,83.47
2019-03-10T01:02:57.705Z,83.50
2019-03-10T01:05:26.939Z,83.34
2019-03-10T01:07:56.175Z,83.62
2019-03-10T01:10:25.398Z,83.50
2019-03-10T01:12:55.234Z,83.77
2019-03-10T01:15:24.520Z,83.92
2019-03-10T01:17:54.675Z,83.90
2019-03-10T01:20:23.863Z,84.04
2019-03-10T01:22:53.119Z,83.92
2019-03-10T01:25:22.288Z,83.72
2019-03-10T01:27:51.581Z,83.74
2019-03-10T01:30:20.865Z,83.83
2019-03-10T01:33:16.021Z,84.19
2019-03-10T01:35:45.210Z,84.44
2019-03-10T01:38:14.444Z,84.78
2019-03-10T01:40:43.675Z,84.89
2019-03-10T01:43:12.877Z,85.14
2019-03-10T01:45:42.063Z,84.73
2019-03-10T01:48:11.299Z,84.55
2019-03-10T01:50:40.503Z,84.89
2019-03-10T01:53:09.862Z,85.16
2019-03-10T01:55:39.100Z,85.20
2019-03-10T01:58:08.267Z,85.45
2019-03-10T02:00:37.426Z,85.52
2019-03-10T02:03:06.669Z,85.37
2019-03-10T02:05:35.870Z,84.84
2019-03-10T02:08:05.219Z,84.85
2019-03-10T02:10:34.566Z,84.86
2019-03-10T02:13:04.051Z,85.07
2019-03-10T02:15:33.422Z,85.04
2019-03-10T02:18:02.571Z,85.04
2019-03-10T02:20:31.806Z,84.92
2019-03-10T02:23:01.083Z,85.22
2019-03-10T02:25:30.280Z,85.15
2019-03-10T02:27:59.572Z,84.97
2019-03-10T02:30:28.966Z,85.04
2019-03-10T02:32:58.134Z,85.10
2019-03-10T02:35:27.416Z,84.70
2019-03-10T02:37:57.017Z,84.65
2019-03-10T02:40:26.362Z,84.45
2019-03-10T02:42:55.589Z,84.95
2019-03-10T02:45:25.351Z,84.77
2019-03-10T02:47:54.763Z,84.78
2019-03-10T02:50:23.938Z,85.66
2019-03-10T02:52:53.156Z,86.17
2019-03-10T02:55:22.402Z,86.13
2019-03-10T02:57:51.594Z,86.30
2019-03-10T03:00:20.857Z,86.79
2019-03-10T03:02:50.115Z,86.40
2019-03-10T03:05:19.388Z,87.44
2019-03-10T03:07:48.573Z,87.30
2019-03-10T03:10:17.878Z,87.27
2019-03-10T03:12:47.295Z,87.85
2019-03-10T03:15:16.458Z,87.65
2019-03-10T03:17:45.682Z,87.57
2019-03-10T03:20:14.875Z,87.34
2019-03-10T03:22:44.052Z,87.14
2019-03-10T03:25:13.508Z,87.51
2019-03-10T03:27:42.711Z,88.11
2019-03-10T03:30:13.107Z,88.31
2019-03-10T03:32:42.258Z,87.92
2019-03-10T03:35:41.050Z,88.04
2019-03-10T03:38:10.246Z,88.39
2019-03-10T03:40:40.815Z,88.29
2019-03-10T03:43:09.969Z,89.11
2019-03-10T03:45:39.136Z,90.10
2019-03-10T03:48:08.365Z,90.46
2019-03-10T03:50:37.522Z,90.77
2019-03-10T03:53:06.688Z,90.04
2019-03-10T03:55:35.855Z,92.34
2019-03-10T03:58:05.009Z,93.10
2019-03-10T04:00:34.202Z,94.19
2019-03-10T04:03:03.485Z,93.88
2019-03-10T04:05:32.699Z,94.90
2019-03-10T04:08:01.861Z,95.02
2019-03-10T04:10:31.027Z,95.83
2019-03-10T04:13:00.173Z,95.76
2019-03-10T04:15:29.323Z,96.88
2019-03-10T04:17:58.510Z,96.99
2019-03-10T04:20:27.706Z,97.25
2019-03-10T04:22:56.860Z,97.51
2019-03-10T04:25:26.020Z,97.12
2019-03-10T04:27:55.148Z,97.10
2019-03-10T04:30:24.261Z,96.33
2019-03-10T04:32:53.451Z,95.00
2019-03-10T04:35:22.646Z,95.04
2019-03-10T04:37:51.838Z,94.78
2019-03-10T04:40:20.977Z,95.56
2019-03-10T04:42:50.248Z,95.79
2019-03-10T04:45:19.434Z,95.15
2019-03-10T04:47:48.601Z,95.94
2019-03-10T04:50:17.717Z,95.90
2019-03-10T04:52:46.886Z,95.54
2019-03-10T04:55:24.949Z,95.39
2019-03-10T04:58:08.548Z,94.69
2019-03-10T05:00:38.984Z,95.02
2019-03-10T05:03:08.176Z,95.03
2019-03-10T05:05:37.356Z,94.80
2019-03-10T05:08:06.545Z,94.36
2019-03-10T05:10:35.679Z,94.19
2019-03-10T05:13:04.986Z,94.96
2019-03-10T05:15:34.187Z,94.89
2019-03-10T05:18:03.333Z,93.94
2019-03-10T05:20:32.529Z,94.49
2019-03-10T05:23:32.546Z,94.61
2019-03-10T05:26:01.715Z,95.08
2019-03-10T05:28:31.803Z,94.55
2019-03-10T05:31:00.972Z,94.75
2019-03-10T05:33:30.235Z,95.16
2019-03-10T05:35:59.401Z,94.79
2019-03-10T05:38:28.573Z,94.37
2019-03-10T05:41:00.786Z,94.58
2019-03-10T05:43:29.960Z,94.63
2019-03-10T05:45:59.083Z,94.96
2019-03-10T05:48:28.250Z,95.42
2019-03-10T05:50:57.431Z,96.15
2019-03-10T05:53:26.666Z,96.43
2019-03-10T05:55:55.848Z,96.78
2019-03-10T05:58:25.020Z,97.06
2019-03-10T06:00:54.277Z,98.06
2019-03-10T06:03:23.491Z,98.08
2019-03-10T06:05:52.764Z,98.93
2019-03-10T06:08:21.945Z,99.72
2019-03-10T06:10:51.193Z,99.79
2019-03-10T06:13:20.372Z,99.51
2019-03-10T06:15:49.538Z,99.75
2019-03-10T06:18:18.696Z,100.00
2019-03-10T06:20:47.869Z,100.00
2019-03-10T06:23:17.009Z,100.00
2019-03-10T06:25:46.184Z,100.00
2019-03-10T06:28:15.367Z,100.00
2019-03-10T06:30:44.774Z,100.00
2019-03-10T06:33:14.133Z,100.00
2019-03-10T06:35:43.368Z,100.00
2019-03-10T06:38:12.543Z,100.00
2019-03-10T06:40:41.845Z,100.00
2019-03-10T06:43:11.024Z,100.00
2019-03-10T06:45:40.211Z,100.00
2019-03-10T06:48:09.422Z,100.00
2019-03-10T06:50:38.617Z,100.00
2019-03-10T06:53:07.837Z,100.00
2019-03-10T06:55:37.209Z,100.00
2019-03-10T06:58:06.428Z,100.00
2019-03-10T07:00:35.796Z,100.00
2019-03-10T07:03:04.937Z,100.00
2019-03-10T07:05:34.207Z,100.00
2019-03-10T07:08:03.491Z,100.00
2019-03-10T07:10:32.642Z,100.00
2019-03-10T07:13:01.815Z,100.00
2019-03-10T07:15:30.954Z,100.00
2019-03-10T07:18:00.104Z,100.00
2019-03-10T07:20:29.269Z,100.00
2019-03-10T07:22:58.491Z,100.00
2019-03-10T07:25:27.693Z,100.00
2019-03-10T07:28:05.660Z,100.00
2019-03-10T07:30:56.904Z,100.00
2019-03-10T07:33:45.021Z,100.00
2019-03-10T07:36:26.868Z,100.00
2019-03-10T07:39:33.461Z,100.00
2019-03-10T07:42:24.452Z,100.00
2019-03-10T07:45:24.638Z,100.00
2019-03-10T07:48:09.168Z,100.00
2019-03-10T07:50:57.351Z,100.00
2019-03-10T07:53:35.606Z,100.00
2019-03-10T07:56:13.198Z,100.00
2019-03-10T07:59:16.908Z,100.00
2019-03-10T08:02:08.057Z,100.00
2019-03-10T08:05:02.563Z,100.00
2019-03-10T08:07:59.506Z,100.00
2019-03-10T08:10:37.609Z,100.00
2019-03-10T08:13:25.733Z,100.00
2019-03-10T08:16:13.953Z,100.00
2019-03-10T08:19:00.718Z,100.00
2019-03-10T08:21:47.949Z,100.00
2019-03-10T08:24:31.377Z,100.00
2019-03-10T08:27:18.674Z,100.00
2019-03-10T08:29:59.802Z,100.00
2019-03-10T08:32:51.137Z,100.00
2019-03-10T08:35:28.845Z,100.00
2019-03-10T08:38:09.166Z,100.00
2019-03-10T08:40:56.194Z,100.00
2019-03-10T08:43:47.186Z,100.00
2019-03-10T08:46:38.154Z,100.00
2019-03-10T08:49:20.031Z,100.00
2019-03-10T08:51:53.963Z,100.00
2019-03-10T08:54:50.966Z,100.00
2019-03-10T08:57:34.951Z,100.00
2019-03-10T09:00:18.202Z,99.78
2019-03-10T09:03:12.175Z,99.53
2019-03-10T09:06:09.854Z,99.55
2019-03-10T09:08:54.480Z,99.96
2019-03-10T09:11:45.455Z,99.87
2019-03-10T09:14:32.578Z,99.65
2019-03-10T09:17:09.259Z,99.41
2019-03-10T09:20:03.250Z,99.79
2019-03-10T09:23:00.666Z,100.00
2019-03-10T09:25:48.879Z,100.00
2019-03-10T09:28:39.768Z,100.00
2019-03-10T09:31:40.107Z,100.00
2019-03-10T09:34:40.303Z,100.00
2019-03-10T09:37:17.142Z,100.00
2019-03-10T09:40:14.410Z,97.98
2019-03-10T09:43:14.694Z,97.89
2019-03-10T09:45:58.879Z,99.37
2019-03-10T09:48:56.128Z,98.50
2019-03-10T09:51:34.441Z,99.40
2019-03-10T09:54:12.795Z,99.43
2019-03-10T09:56:59.473Z,100.00
2019-03-10T09:59:40.786Z,100.00
2019-03-10T10:02:35.074Z,100.00
2019-03-10T10:05:16.611Z,100.00
2019-03-10T10:08:13.575Z,100.00
2019-03-10T10:11:04.460Z,99.67
2019-03-10T10:14:01.712Z,99.78
2019-03-10T10:17:08.043Z,99.36
2019-03-10T10:19:55.063Z,100.00
2019-03-10T10:22:43.223Z,100.00
2019-03-10T10:25:23.910Z,100.00
2019-03-10T10:28:19.159Z,100.00
2019-03-10T10:31:10.185Z,100.00
2019-03-10T10:33:58.401Z,100.00
2019-03-10T10:36:45.004Z,100.00
2019-03-10T10:39:30.416Z,100.00
2019-03-10T10:42:10.532Z,100.00
2019-03-10T10:44:57.473Z,100.00
2019-03-10T10:47:35.431Z,97.93
2019-03-10T10:50:20.235Z,94.25
2019-03-10T10:53:11.392Z,92.37
2019-03-10T10:55:58.183Z,90.75
2019-03-10T10:58:52.554Z,93.39
2019-03-10T11:01:43.874Z,93.63
2019-03-10T11:04:34.930Z,93.53
2019-03-10T11:07:38.268Z,90.63
2019-03-10T11:10:32.643Z,90.17
2019-03-10T11:13:14.889Z,90.17
2019-03-10T11:16:03.152Z,90.55
2019-03-10T11:18:51.327Z,89.06
2019-03-10T11:21:51.408Z,89.27
2019-03-10T11:24:25.772Z,87.75
2019-03-10T11:27:19.973Z,87.62
2019-03-10T11:30:08.170Z,82.93
2019-03-10T11:32:47.848Z,84.43
2019-03-10T11:35:34.361Z,82.65
2019-03-10T11:38:10.363Z,82.69
2019-03-10T11:41:13.787Z,82.02
2019-03-10T11:43:51.774Z,81.42
2019-03-10T11:46:51.951Z,82.81
2019-03-10T11:49:37.768Z,86.13
2019-03-10T11:52:17.569Z,86.10
2019-03-10T11:55:15.096Z,82.86
2019-03-10T11:58:02.084Z,82.37
2019-03-10T12:00:42.363Z,81.59
2019-03-10T12:03:36.608Z,81.59
2019-03-10T12:06:36.947Z,84.56
2019-03-10T12:09:16.171Z,83.92
2019-03-10T12:11:45.413Z,83.75
2019-03-10T12:14:14.697Z,84.01
2019-03-10T12:16:43.941Z,81.35
2019-03-10T12:19:13.219Z,79.86
2019-03-10T12:21:42.496Z,80.97
2019-03-10T12:24:11.740Z,80.77
2019-03-10T12:26:40.964Z,80.49
2019-03-10T12:29:10.181Z,86.28
2019-03-10T12:31:39.378Z,86.28
2019-03-10T12:34:08.657Z,90.09
2019-03-10T12:36:37.956Z,93.78
2019-03-10T12:39:08.921Z,95.71
2019-03-10T12:41:38.374Z,95.27
2019-03-10T12:44:07.720Z,92.99
2019-03-10T12:46:36.943Z,93.98
2019-03-10T12:49:06.188Z,93.57
2019-03-10T12:51:35.411Z,90.01
2019-03-10T12:54:04.604Z,90.04
2019-03-10T12:56:33.868Z,86.29
2019-03-10T12:59:03.142Z,87.07
2019-03-10T13:01:32.339Z,82.56
2019-03-10T13:04:01.545Z,82.26
2019-03-10T13:06:30.817Z,78.09
2019-03-10T13:09:00.061Z,75.34
2019-03-10T13:11:29.292Z,70.34
2019-03-10T13:13:58.464Z,70.96
2019-03-10T13:16:27.640Z,69.35
2019-03-10T13:18:56.893Z,70.15
2019-03-10T13:21:26.310Z,69.83
2019-03-10T13:23:55.528Z,71.59
2019-03-10T13:26:24.898Z,70.47
2019-03-10T13:28:54.180Z,69.94
2019-03-10T13:31:23.397Z,70.04
2019-03-10T13:33:52.639Z,68.64
2019-03-10T13:36:21.887Z,68.91
2019-03-10T13:38:51.177Z,69.18
2019-03-10T13:41:20.478Z,67.95
2019-03-10T13:43:49.727Z,65.50
2019-03-10T13:46:19.133Z,62.68
2019-03-10T13:48:48.459Z,62.04
2019-03-10T13:51:18.007Z,59.21
2019-03-10T13:53:47.254Z,58.58
2019-03-10T13:56:16.491Z,57.49
2019-03-10T13:58:45.753Z,58.43
2019-03-10T14:01:15.029Z,58.09
2019-03-10T14:03:44.330Z,57.47
2019-03-10T14:06:13.543Z,57.69
2019-03-10T14:08:42.785Z,57.58
2019-03-10T14:11:11.986Z,57.90
2019-03-10T14:13:41.327Z,57.40
2019-03-10T14:16:10.554Z,56.22
2019-03-10T14:18:39.752Z,55.70
2019-03-10T14:21:08.968Z,55.39
2019-03-10T14:23:38.270Z,55.95
2019-03-10T14:26:07.481Z,54.62
2019-03-10T14:28:36.937Z,54.51
2019-03-10T14:31:06.171Z,52.18
2019-03-10T14:33:35.375Z,53.41
2019-03-10T14:36:04.807Z,53.85
2019-03-10T14:38:34.176Z,55.19
2019-03-10T14:41:03.518Z,54.88
2019-03-10T14:43:32.801Z,55.38
2019-03-10T14:46:02.157Z,54.46
2019-03-10T14:48:31.395Z,52.18
2019-03-10T14:51:00.726Z,53.47
2019-03-10T14:53:29.897Z,50.03
2019-03-10T14:55:59.114Z,48.63
2019-03-10T14:58:28.357Z,48.81
2019-03-10T15:00:57.708Z,48.76
2019-03-10T15:03:26.855Z,47.90
2019-03-10T15:05:56.187Z,47.15
2019-03-10T15:08:25.747Z,43.95
2019-03-10T15:10:55.085Z,43.63
2019-03-10T15:13:24.346Z,43.29
2019-03-10T15:15:53.563Z,43.60
2019-03-10T15:18:22.867Z,42.22
2019-03-10T15:20:52.029Z,43.35
2019-03-10T15:23:21.270Z,44.42
2019-03-10T15:25:50.622Z,43.65
2019-03-10T15:28:20.149Z,43.95
2019-03-10T15:30:50.577Z,42.86
2019-03-10T15:33:20.079Z,42.93
2019-03-10T15:35:49.500Z,43.23
2019-03-10T15:38:18.763Z,43.23
2019-03-10T15:40:48.009Z,40.98
2019-03-10T15:43:17.260Z,41.65
2019-03-10T15:45:46.689Z,41.84
2019-03-10T15:48:15.926Z,42.24
2019-03-10T15:50:45.249Z,42.05
2019-03-10T15:53:14.489Z,42.93
2019-03-10T15:55:43.843Z,41.90
2019-03-10T15:58:13.159Z,41.90
2019-03-10T16:00:42.619Z,41.96
2019-03-10T16:03:11.897Z,42.23
2019-03-10T16:05:41.982Z,42.61
2019-03-10T16:08:11.301Z,43.45
2019-03-10T16:10:40.706Z,43.54
2019-03-10T16:13:10.007Z,44.10
2019-03-10T16:15:39.373Z,44.44
2019-03-10T16:18:08.915Z,45.07
2019-03-10T16:20:38.409Z,45.32
2019-03-10T16:23:07.822Z,44.03
2019-03-10T16:25:37.114Z,43.96
2019-03-10T16:28:06.498Z,43.40
2019-03-10T16:30:36.001Z,42.55
2019-03-10T16:33:05.415Z,40.45
2019-03-10T16:35:34.624Z,39.02
2019-03-10T16:38:03.852Z,39.86
2019-03-10T16:40:33.113Z,40.82
2019-03-10T16:43:02.387Z,41.43
2019-03-10T16:45:31.696Z,41.79
2019-03-10T16:48:01.105Z,42.11
2019-03-10T16:50:30.315Z,42.74
2019-03-10T16:52:59.584Z,42.53
2019-03-10T16:55:29.001Z,43.29
2019-03-10T16:57:58.268Z,43.50
2019-03-10T17:00:27.720Z,44.09
2019-03-10T17:02:56.944Z,44.48
2019-03-10T17:05:26.240Z,44.06
2019-03-10T17:07:55.508Z,42.92
2019-03-10T17:10:24.889Z,42.87
2019-03-10T17:12:54.255Z,44.06
2019-03-10T17:15:23.497Z,44.08
2019-03-10T17:17:52.789Z,45.09
2019-03-10T17:20:22.205Z,44.69
2019-03-10T17:22:51.505Z,44.31
2019-03-10T17:25:20.802Z,44.44
2019-03-10T17:27:50.063Z,44.57
2019-03-10T17:30:20.259Z,44.42
2019-03-10T17:32:49.637Z,44.67
2019-03-10T17:35:19.447Z,44.68
2019-03-10T17:37:49.176Z,45.67
2019-03-10T17:40:18.533Z,45.54
2019-03-10T17:42:47.859Z,46.25
2019-03-10T17:45:17.889Z,45.69
2019-03-10T17:47:47.134Z,45.95
2019-03-10T17:50:16.753Z,46.14
2019-03-10T17:52:46.778Z,46.66
2019-03-10T17:55:16.179Z,46.80
2019-03-10T17:57:45.727Z,47.13
2019-03-10T18:00:17.364Z,48.02
2019-03-10T18:02:47.000Z,50.11
2019-03-10T18:05:16.299Z,51.72
2019-03-10T18:07:45.708Z,55.29
2019-03-10T18:10:16.008Z,57.72
2019-03-10T18:12:45.641Z,59.63
2019-03-10T18:15:15.309Z,68.22
2019-03-10T18:17:44.564Z,73.72
2019-03-10T18:20:14.608Z,75.04
2019-03-10T18:22:44.077Z,73.52
2019-03-10T18:25:13.505Z,70.79
2019-03-10T18:27:42.850Z,64.18
2019-03-10T18:30:15.082Z,64.67
2019-03-10T18:32:44.409Z,62.83
2019-03-10T18:35:13.857Z,62.03
2019-03-10T18:37:43.145Z,61.77
2019-03-10T18:40:15.064Z,61.82
2019-03-10T18:42:44.402Z,62.68
2019-03-10T18:45:15.928Z,64.07
2019-03-10T18:47:45.159Z,63.03
2019-03-10T18:50:15.316Z,62.96
2019-03-10T18:52:44.856Z,62.68
2019-03-10T18:55:14.462Z,62.26
2019-03-10T18:57:43.905Z,62.66
2019-03-10T19:00:18.628Z,62.25
2019-03-10T19:02:47.884Z,61.95
2019-03-10T19:05:17.196Z,62.42
2019-03-10T19:07:47.196Z,61.84
2019-03-10T19:10:16.480Z,62.19
2019-03-10T19:12:45.954Z,63.18
2019-03-10T19:15:16.400Z,63.47
2019-03-10T19:17:45.699Z,62.33
2019-03-10T19:20:15.080Z,63.81
2019-03-10T19:22:44.595Z,62.53
2019-03-10T19:25:14.088Z,63.63
2019-03-10T19:27:43.560Z,63.43
2019-03-10T19:30:14.463Z,63.91
2019-03-10T19:32:43.690Z,64.40
2019-03-10T19:35:13.014Z,64.33
2019-03-10T19:37:42.395Z,62.74
2019-03-10T19:40:13.374Z,63.09
2019-03-10T19:42:42.873Z,63.73
2019-03-10T19:45:13.302Z,62.98
2019-03-10T19:47:42.592Z,63.75
2019-03-10T19:50:13.020Z,61.70
2019-03-10T19:52:42.284Z,60.65
2019-03-10T19:55:12.248Z,61.50
2019-03-10T19:57:41.699Z,60.59
2019-03-10T20:00:13.504Z,60.33
2019-03-10T20:02:42.937Z,61.33
2019-03-10T20:05:12.659Z,59.91
2019-03-10T20:07:41.939Z,59.43
2019-03-10T20:10:12.056Z,59.58
2019-03-10T20:12:41.292Z,59.78
2019-03-10T20:15:12.542Z,58.22
2019-03-10T20:17:41.782Z,58.23
2019-03-10T20:20:12.897Z,58.28
2019-03-10T20:22:42.286Z,56.50
2019-03-10T20:25:12.475Z,57.02
2019-03-10T20:27:41.709Z,55.22
2019-03-10T20:30:13.593Z,56.62
2019-03-10T20:32:43.074Z,55.65
2019-03-10T20:35:12.378Z,55.03
2019-03-10T20:37:41.665Z,55.86
2019-03-10T20:40:12.365Z,55.51
2019-03-10T20:42:41.718Z,55.72
2019-03-10T20:45:11.634Z,56.00
2019-03-10T20:47:41.121Z,55.90
2019-03-10T20:50:11.700Z,54.84
2019-03-10T20:52:41.156Z,54.31
2019-03-10T20:55:10.748Z,54.52
2019-03-10T20:57:40.946Z,54.39
2019-03-10T21:00:12.977Z,55.10
2019-03-10T21:02:42.237Z,55.22
2019-03-10T21:05:11.673Z,54.93
2019-03-10T21:07:40.964Z,54.31
2019-03-10T21:10:11.535Z,55.20
2019-03-10T21:12:42.846Z,54.11
2019-03-10T21:15:13.999Z,54.95
2019-03-10T21:17:43.211Z,54.82
2019-03-10T21:20:13.904Z,54.81
2019-03-10T21:22:43.213Z,55.68
2019-03-10T21:25:14.563Z,55.43
2019-03-10T21:27:43.966Z,56.33
2019-03-10T21:30:15.705Z,55.96
2019-03-10T21:32:45.161Z,55.22
2019-03-10T21:35:18.022Z,55.50
2019-03-10T21:37:45.674Z,53.56
2019-03-10T21:40:16.846Z,54.27
2019-03-10T21:42:46.091Z,53.97
2019-03-10T21:45:15.581Z,54.85
2019-03-10T21:47:44.892Z,55.02
2019-03-10T21:50:14.526Z,54.62
2019-03-10T21:52:43.843Z,53.26
2019-03-10T21:55:13.204Z,54.10
2019-03-10T21:57:42.431Z,55.23
2019-03-10T22:00:12.572Z,55.82
2019-03-10T22:02:41.994Z,55.79
2019-03-10T22:05:11.570Z,55.82
2019-03-10T22:07:40.826Z,55.65
2019-03-10T22:10:11.139Z,55.80
2019-03-10T22:12:40.513Z,56.87
2019-03-10T22:15:11.515Z,58.59
2019-03-10T22:17:40.835Z,59.26
2019-03-10T22:20:12.563Z,57.55
2019-03-10T22:22:48.354Z,60.10
2019-03-10T22:25:14.527Z,60.41
2019-03-10T22:27:45.821Z,59.52
2019-03-10T22:30:16.335Z,59.92
2019-03-10T22:32:45.597Z,60.12
2019-03-10T22:35:15.371Z,60.01
2019-03-10T22:37:44.830Z,60.04
2019-03-10T22:40:14.249Z,59.44
2019-03-10T22:42:43.787Z,58.38
2019-03-10T22:45:13.630Z,58.43
2019-03-10T22:47:42.792Z,58.86
2019-03-10T22:50:12.769Z,59.29
2019-03-10T22:52:41.949Z,59.91
2019-03-10T22:55:11.250Z,60.14
2019-03-10T22:57:40.553Z,60.77
2019-03-10T23:00:13.154Z,60.85
2019-03-10T23:02:42.359Z,60.65
2019-03-10T23:05:11.588Z,61.22
2019-03-10T23:07:40.771Z,60.13
2019-03-10T23:10:10.877Z,59.97
2019-03-10T23:12:40.049Z,60.71
2019-03-10T23:15:10.095Z,60.54
2019-03-10T23:17:39.306Z,59.95
2019-03-10T23:20:10.319Z,59.98
2019-03-10T23:22:39.499Z,60.83
2019-03-10T23:25:08.684Z,60.88
2019-03-10T23:27:37.937Z,61.21
2019-03-10T23:30:08.284Z,61.90
2019-03-10T23:32:37.441Z,61.63
2019-03-10T23:35:06.656Z,61.60
2019-03-10T23:37:35.858Z,61.76
2019-03-10T23:40:05.626Z,61.00
2019-03-10T23:42:34.832Z,60.49
2019-03-10T23:45:04.139Z,59.77
2019-03-10T23:47:35.162Z,60.39
2019-03-10T23:50:05.001Z,60.32
2019-03-10T23:52:34.256Z,60.90
2019-03-10T23:55:03.460Z,61.62
2019-03-10T23:57:32.697Z,61.31
